Time;durP1;ratioP1;P1;durP2;ratioP2;P2;SDS_P1;SDS_P2;PMS_P1;PMS_P2;Temp;Humidity;BMP_temperature;BMP_pressure;BME280_temperature;BME280_humidity;BME280_pressure;Samples;Min_cycle;Max_cycle;Signal;HPM_P1;HPM_P2
2022/09/06 00:00:38;;;;;;;8.67;7.70;;;15.20;99.90;;;;;;5114255;28;20203;-76
2022/09/06 00:03:06;;;;;;;9.10;7.83;;;15.20;99.90;;;;;;5114808;28;20210;-75
2022/09/06 00:05:34;;;;;;;9.10;8.20;;;15.20;99.90;;;;;;5114841;28;20203;-75
2022/09/06 00:08:04;;;;;;;12.93;8.57;;;15.10;99.90;;;;;;5114643;28;20567;-75
2022/09/06 00:10:32;;;;;;;8.90;8.20;;;15.20;99.90;;;;;;5114900;28;20865;-76
2022/09/06 00:13:02;;;;;;;9.93;8.43;;;15.20;99.90;;;;;;5114711;28;20223;-74
2022/09/06 00:15:28;;;;;;;8.87;8.17;;;15.20;99.90;;;;;;5114521;28;20227;-75
2022/09/06 00:17:58;;;;;;;11.47;8.10;;;15.10;99.90;;;;;;5114353;28;20226;-74
2022/09/06 00:20:26;;;;;;;9.30;8.40;;;15.00;99.90;;;;;;5114208;28;20195;-75
2022/09/06 00:22:55;;;;;;;9.10;7.97;;;15.10;99.90;;;;;;5114122;28;20276;-74
2022/09/06 00:25:24;;;;;;;9.23;8.23;;;15.10;99.90;;;;;;5114358;28;20207;-74
2022/09/06 00:27:54;;;;;;;9.47;8.47;;;15.00;99.90;;;;;;5114088;28;20694;-74
2022/09/06 00:30:20;;;;;;;11.00;8.00;;;15.00;99.90;;;;;;5114199;28;20217;-74
2022/09/06 00:32:47;;;;;;;12.27;8.93;;;15.00;99.90;;;;;;5114496;28;20199;-75
2022/09/06 00:35:14;;;;;;;8.73;7.93;;;15.00;99.90;;;;;;5113934;28;20196;-74
2022/09/06 00:37:40;;;;;;;12.20;7.77;;;15.00;99.90;;;;;;5114227;28;20605;-75
2022/09/06 00:40:08;;;;;;;9.40;8.40;;;14.80;99.90;;;;;;5114096;28;20205;-74
2022/09/06 00:42:36;;;;;;;10.77;8.80;;;14.90;99.90;;;;;;5113809;28;20702;-74
2022/09/06 00:45:04;;;;;;;11.07;7.87;;;14.80;99.90;;;;;;5113922;28;20249;-75
2022/09/06 00:47:31;;;;;;;13.40;8.70;;;14.90;99.90;;;;;;5113807;28;20203;-75
2022/09/06 00:50:00;;;;;;;12.50;8.50;;;15.00;99.90;;;;;;5113783;28;20268;-74
2022/09/06 00:52:27;;;;;;;9.07;8.27;;;14.90;99.90;;;;;;5113666;28;20199;-74
2022/09/06 00:54:55;;;;;;;10.67;8.60;;;14.90;99.90;;;;;;5113532;27;20624;-74
2022/09/06 00:57:25;;;;;;;9.40;8.00;;;14.90;99.90;;;;;;5113790;28;20207;-74
2022/09/06 00:59:55;;;;;;;10.47;8.80;;;14.80;99.90;;;;;;5113579;28;20672;-74
2022/09/06 01:02:22;;;;;;;9.47;8.53;;;14.70;99.90;;;;;;5113493;28;20223;-74
2022/09/06 01:04:50;;;;;;;9.77;8.50;;;14.80;99.90;;;;;;5113673;28;20241;-74
2022/09/06 01:07:26;;;;;;;13.50;9.33;;;14.80;99.90;;;;;;5113676;28;20195;-74
2022/09/06 01:10:04;;;;;;;10.20;8.97;;;14.80;99.90;;;;;;5113581;28;20196;-75
2022/09/06 01:12:47;;;;;;;10.57;9.23;;;14.80;99.90;;;;;;5112688;28;20562;-75
2022/09/06 01:15:27;;;;;;;11.60;8.73;;;14.80;99.90;;;;;;5113427;28;20655;-75
2022/09/06 01:18:04;;;;;;;10.40;9.40;;;14.70;99.90;;;;;;5113502;28;20198;-74
2022/09/06 01:20:51;;;;;;;10.43;9.43;;;14.70;99.90;;;;;;5113418;28;20341;-75
2022/09/06 01:23:55;;;;;;;11.10;9.13;;;14.70;99.90;;;;;;5113269;28;20197;-75
2022/09/06 01:26:52;;;;;;;9.77;8.87;;;14.70;99.90;;;;;;5113230;28;20731;-75
2022/09/06 01:29:27;;;;;;;10.80;9.70;;;14.60;99.90;;;;;;5112960;28;20196;-75
2022/09/06 01:31:59;;;;;;;12.20;10.47;;;14.60;99.90;;;;;;5113172;28;20700;-75
2022/09/06 01:34:31;;;;;;;11.93;10.73;;;14.60;99.90;;;;;;5113148;28;20647;-75
2022/09/06 01:37:02;;;;;;;12.80;9.87;;;14.60;99.90;;;;;;5113134;28;20597;-75
2022/09/06 01:39:30;;;;;;;17.40;11.17;;;14.60;99.90;;;;;;5113199;28;20203;-75
2022/09/06 01:41:59;;;;;;;14.10;11.40;;;14.50;99.90;;;;;;5113036;28;20296;-75
2022/09/06 01:44:29;;;;;;;12.23;10.70;;;14.50;99.90;;;;;;5113411;28;20196;-75
2022/09/06 01:47:05;;;;;;;15.03;12.60;;;14.50;99.90;;;;;;5113408;28;20605;-75
2022/09/06 01:49:44;;;;;;;16.30;11.33;;;14.50;99.90;;;;;;5113335;28;20217;-75
2022/09/06 01:52:17;;;;;;;15.23;12.00;;;14.60;99.90;;;;;;5113242;28;20244;-75
2022/09/06 01:55:01;;;;;;;12.17;10.90;;;14.50;99.90;;;;;;5113121;28;20204;-75
2022/09/06 01:57:43;;;;;;;16.93;11.77;;;14.50;99.90;;;;;;5113036;28;20252;-75
2022/09/06 02:00:14;;;;;;;13.40;11.80;;;14.50;99.90;;;;;;5113129;28;20597;-75
2022/09/06 02:02:58;;;;;;;12.13;10.63;;;14.50;99.90;;;;;;5112765;28;20231;-75
2022/09/06 02:05:30;;;;;;;19.53;12.60;;;14.50;99.90;;;;;;5113177;28;20203;-74
2022/09/06 02:08:04;;;;;;;16.00;12.10;;;14.40;99.90;;;;;;5112972;28;20203;-75
2022/09/06 02:10:37;;;;;;;16.43;12.17;;;14.40;99.90;;;;;;5112909;28;20200;-75
2022/09/06 02:13:05;;;;;;;13.90;11.43;;;14.40;99.90;;;;;;5112860;28;20207;-75
2022/09/06 02:15:36;;;;;;;19.53;12.97;;;14.40;99.90;;;;;;5113067;28;20253;-75
2022/09/06 02:18:08;;;;;;;16.37;12.80;;;14.40;99.90;;;;;;5112915;28;20196;-75
2022/09/06 02:20:41;;;;;;;17.53;13.27;;;14.40;99.90;;;;;;5112850;28;20204;-76
2022/09/06 02:23:09;;;;;;;16.50;11.83;;;14.30;99.90;;;;;;5112889;28;20231;-75
2022/09/06 02:25:38;;;;;;;15.23;12.07;;;14.40;99.90;;;;;;5116623;28;20244;-75
2022/09/06 02:28:06;;;;;;;13.73;10.40;;;14.40;99.90;;;;;;5116743;28;20199;-75
2022/09/06 02:30:37;;;;;;;15.77;10.87;;;14.30;99.90;;;;;;5116409;28;20704;-75
2022/09/06 02:33:09;;;;;;;11.77;9.63;;;14.40;99.90;;;;;;5116559;28;20199;-75
2022/09/06 02:35:43;;;;;;;12.40;9.60;;;14.40;99.90;;;;;;5116506;28;20699;-75
2022/09/06 02:38:10;;;;;;;10.83;9.37;;;14.30;99.90;;;;;;5116449;28;20199;-75
2022/09/06 02:40:37;;;;;;;12.50;9.40;;;14.30;99.90;;;;;;5116595;28;20199;-75
2022/09/06 02:43:04;;;;;;;10.10;9.07;;;14.20;99.90;;;;;;5116297;28;20220;-74
2022/09/06 02:45:31;;;;;;;10.47;9.37;;;14.20;99.90;;;;;;5116436;28;20241;-76
2022/09/06 02:47:59;;;;;;;10.40;9.30;;;14.20;99.90;;;;;;5116155;28;20199;-75
2022/09/06 02:50:25;;;;;;;9.57;8.67;;;14.20;99.90;;;;;;5116057;28;20659;-75
2022/09/06 02:53:02;;;;;;;9.40;8.50;;;14.20;99.90;;;;;;5115984;28;20244;-75
2022/09/06 02:55:28;;;;;;;10.10;8.93;;;14.10;99.90;;;;;;5116090;28;20250;-75
2022/09/06 02:57:55;;;;;;;10.27;8.80;;;14.10;99.90;;;;;;5116007;28;20650;-75
2022/09/06 03:00:22;;;;;;;10.27;9.27;;;14.10;99.90;;;;;;5115850;27;20723;-75
2022/09/06 03:02:48;;;;;;;9.67;8.77;;;14.10;99.90;;;;;;5115941;28;20284;-75
2022/09/06 03:05:17;;;;;;;11.90;9.23;;;14.10;99.90;;;;;;5115866;28;20249;-75
2022/09/06 03:07:43;;;;;;;10.00;9.10;;;14.10;99.90;;;;;;5115782;28;20680;-75
2022/09/06 03:10:10;;;;;;;9.87;8.83;;;14.10;99.90;;;;;;5115913;28;20195;-75
2022/09/06 03:12:37;;;;;;;10.23;9.33;;;14.10;99.90;;;;;;5115778;28;20207;-75
2022/09/06 03:15:05;;;;;;;10.03;9.03;;;14.10;99.90;;;;;;5115694;28;20257;-75
2022/09/06 03:17:31;;;;;;;13.17;9.37;;;14.10;99.90;;;;;;5115643;28;20245;-75
2022/09/06 03:19:58;;;;;;;12.20;9.57;;;14.20;99.90;;;;;;5115447;28;20253;-75
2022/09/06 03:22:26;;;;;;;10.27;9.13;;;14.20;99.90;;;;;;5115462;28;20269;-75
2022/09/06 03:24:53;;;;;;;10.50;9.53;;;14.20;99.90;;;;;;5115732;28;20381;-75
2022/09/06 03:27:19;;;;;;;9.87;8.83;;;14.20;99.90;;;;;;5115429;28;20196;-75
2022/09/06 03:29:46;;;;;;;10.33;9.43;;;14.20;99.90;;;;;;5115320;28;20195;-75
2022/09/06 03:32:12;;;;;;;10.60;8.30;;;14.20;99.90;;;;;;5115188;28;20223;-75
2022/09/06 03:34:39;;;;;;;10.47;9.47;;;14.30;99.90;;;;;;5115161;28;20241;-75
2022/09/06 03:37:06;;;;;;;10.70;9.23;;;14.20;99.90;;;;;;5114929;28;20230;-75
2022/09/06 03:39:34;;;;;;;9.93;8.90;;;14.20;99.90;;;;;;5115221;28;20195;-75
2022/09/06 03:42:01;;;;;;;12.70;9.10;;;14.20;99.90;;;;;;5114963;28;20678;-75
2022/09/06 03:44:28;;;;;;;11.67;9.07;;;14.30;99.90;;;;;;5115104;28;20238;-75
2022/09/06 03:46:54;;;;;;;10.17;9.17;;;14.30;99.90;;;;;;5114973;28;20198;-75
2022/09/06 03:49:21;;;;;;;11.87;9.33;;;14.30;99.90;;;;;;5114838;28;20207;-75
2022/09/06 03:51:48;;;;;;;10.10;9.07;;;14.30;99.90;;;;;;5114920;28;20727;-74
2022/09/06 03:54:14;;;;;;;9.37;8.57;;;14.30;99.90;;;;;;5114954;28;20249;-75
2022/09/06 03:56:42;;;;;;;11.03;9.93;;;14.30;99.90;;;;;;5114973;28;20280;-75
2022/09/06 03:59:09;;;;;;;10.23;9.20;;;14.30;99.90;;;;;;5114741;28;20203;-75
2022/09/06 04:01:35;;;;;;;10.83;8.83;;;14.30;99.90;;;;;;5114558;28;20200;-74
2022/09/06 04:04:02;;;;;;;9.77;8.77;;;14.40;99.90;;;;;;5114771;28;20224;-74
2022/09/06 04:06:29;;;;;;;9.20;8.40;;;14.40;99.90;;;;;;5114521;28;20650;-74
2022/09/06 04:08:56;;;;;;;10.10;9.07;;;14.40;99.90;;;;;;5114671;28;20249;-74
2022/09/06 04:11:22;;;;;;;12.03;8.63;;;14.50;99.90;;;;;;5114433;28;20196;-74
2022/09/06 04:13:50;;;;;;;10.20;9.20;;;14.50;99.90;;;;;;5114392;28;20200;-75
2022/09/06 04:16:17;;;;;;;10.27;8.57;;;14.40;99.90;;;;;;5114346;28;20253;-74
2022/09/06 04:18:44;;;;;;;9.63;8.70;;;14.40;99.90;;;;;;5114538;28;20256;-74
2022/09/06 04:21:11;;;;;;;10.00;9.00;;;14.40;99.90;;;;;;5114327;28;20698;-76
2022/09/06 04:23:37;;;;;;;9.33;8.43;;;14.50;99.90;;;;;;5114039;28;20698;-76
2022/09/06 04:26:04;;;;;;;10.03;9.03;;;14.60;99.90;;;;;;5114263;28;20248;-76
2022/09/06 04:28:31;;;;;;;9.43;8.63;;;14.70;99.90;;;;;;5114079;28;20654;-75
2022/09/06 04:31:01;;;;;;;8.77;7.87;;;14.60;99.90;;;;;;5114517;28;20202;-75
2022/09/06 04:33:28;;;;;;;8.07;7.27;;;14.50;99.90;;;;;;5114272;28;20204;-76
2022/09/06 04:35:56;;;;;;;11.00;8.10;;;14.30;99.90;;;;;;5114261;28;20248;-75
2022/09/06 04:38:23;;;;;;;13.30;9.17;;;14.50;99.90;;;;;;5113882;28;20647;-75
2022/09/06 04:40:50;;;;;;;10.27;8.30;;;14.50;99.90;;;;;;5114031;28;20259;-75
2022/09/06 04:43:17;;;;;;;9.70;7.70;;;14.50;99.90;;;;;;5113595;28;20698;-75
2022/09/06 04:45:44;;;;;;;9.47;8.57;;;14.50;99.90;;;;;;5114051;28;20196;-76
2022/09/06 04:48:12;;;;;;;11.67;8.00;;;14.50;99.90;;;;;;5113733;28;20659;-76
2022/09/06 04:50:39;;;;;;;8.33;7.53;;;14.70;99.90;;;;;;5113983;28;20343;-75
2022/09/06 04:53:06;;;;;;;11.97;8.57;;;14.80;99.90;;;;;;5113788;28;20707;-75
2022/09/06 04:55:33;;;;;;;9.90;8.77;;;14.80;99.90;;;;;;5113365;28;20759;-75
2022/09/06 04:57:59;;;;;;;14.43;8.90;;;14.90;99.90;;;;;;5113846;28;20249;-75
2022/09/06 05:00:26;;;;;;;13.90;8.83;;;15.10;99.90;;;;;;5113745;28;20192;-75
2022/09/06 05:02:53;;;;;;;12.93;8.50;;;15.20;99.90;;;;;;5113649;28;20292;-76
2022/09/06 05:05:21;;;;;;;13.00;8.97;;;15.30;99.90;;;;;;5113665;28;20221;-75
2022/09/06 05:07:48;;;;;;;24.67;9.87;;;15.50;99.90;;;;;;5113612;28;20655;-76
2022/09/06 05:10:15;;;;;;;27.50;9.87;;;15.60;99.90;;;;;;5113404;28;20241;-75
2022/09/06 05:12:41;;;;;;;24.83;10.50;;;15.80;99.90;;;;;;5113569;28;20204;-75
2022/09/06 05:15:09;;;;;;;16.87;9.03;;;15.80;99.90;;;;;;5113556;28;20244;-75
2022/09/06 05:17:36;;;;;;;17.93;8.00;;;15.80;99.90;;;;;;5113534;28;20265;-75
2022/09/06 05:20:03;;;;;;;10.37;7.70;;;15.90;99.90;;;;;;5113318;28;20252;-75
2022/09/06 05:22:31;;;;;;;12.70;8.13;;;16.00;99.90;;;;;;5113329;28;20322;-75
2022/09/06 05:24:58;;;;;;;17.80;7.67;;;16.10;99.90;;;;;;5113184;28;20240;-75
2022/09/06 05:27:24;;;;;;;10.87;8.63;;;16.20;99.90;;;;;;5113296;28;20659;-75
2022/09/06 05:29:51;;;;;;;12.17;7.30;;;16.30;99.90;;;;;;5113430;28;20203;-75
2022/09/06 05:32:18;;;;;;;14.00;7.53;;;16.50;99.90;;;;;;5113204;28;20570;-75
2022/09/06 05:34:44;;;;;;;20.13;9.47;;;16.70;99.90;;;;;;5113177;28;20249;-75
2022/09/06 05:37:11;;;;;;;19.07;9.50;;;16.80;99.90;;;;;;5113045;28;20195;-75
2022/09/06 05:39:39;;;;;;;19.58;10.25;;;16.80;99.90;;;;;;5112942;28;20712;-75
2022/09/06 05:42:06;;;;;;;21.42;11.98;;;16.90;99.90;;;;;;5113430;28;20249;-76
2022/09/06 05:44:33;;;;;;;16.00;9.65;;;17.00;99.90;;;;;;5113172;28;20219;-76
2022/09/06 05:47:00;;;;;;;13.43;9.65;;;17.10;99.90;;;;;;5113135;28;20203;-75
2022/09/06 05:49:29;;;;;;;11.15;8.15;;;17.10;99.90;;;;;;5112957;28;20593;-75
2022/09/06 05:51:55;;;;;;;13.13;8.73;;;17.10;99.90;;;;;;5112909;28;20651;-75
2022/09/06 05:54:22;;;;;;;13.15;8.50;;;17.10;99.90;;;;;;5112999;28;20256;-76
2022/09/06 05:56:51;;;;;;;13.90;8.57;;;17.10;99.90;;;;;;5112719;28;20629;-76
2022/09/06 05:59:17;;;;;;;14.95;9.20;;;17.10;99.90;;;;;;5115140;28;20260;-75
2022/09/06 06:01:48;;;;;;;14.38;9.05;;;17.10;99.90;;;;;;5117020;28;20192;-75
2022/09/06 06:04:17;;;;;;;11.73;8.50;;;17.10;99.90;;;;;;5116891;28;20698;-75
2022/09/06 06:06:44;;;;;;;12.13;8.27;;;17.10;99.90;;;;;;5117093;28;20199;-75
2022/09/06 06:09:11;;;;;;;9.30;8.25;;;17.10;99.90;;;;;;5117051;28;20204;-75
2022/09/06 06:11:37;;;;;;;8.73;7.57;;;17.10;99.90;;;;;;5116816;28;20195;-76
2022/09/06 06:14:06;;;;;;;9.27;8.25;;;17.10;99.90;;;;;;5116675;28;20655;-76
2022/09/06 06:16:32;;;;;;;11.63;8.25;;;17.10;99.90;;;;;;5116729;28;20242;-75
2022/09/06 06:18:59;;;;;;;9.63;7.50;;;17.20;99.90;;;;;;5116598;28;20206;-76
2022/09/06 06:21:28;;;;;;;13.90;8.43;;;17.30;99.90;;;;;;5116863;28;20252;-75
2022/09/06 06:23:56;;;;;;;10.18;8.38;;;17.50;99.90;;;;;;5116664;28;20224;-75
2022/09/06 06:26:24;;;;;;;13.23;8.00;;;17.60;99.90;;;;;;5116768;28;20195;-76
2022/09/06 06:28:52;;;;;;;8.40;7.40;;;17.90;99.90;;;;;;5116537;28;20196;-75
2022/09/06 06:31:21;;;;;;;9.75;7.32;;;18.00;99.90;;;;;;5116437;28;20241;-76
2022/09/06 06:33:48;;;;;;;7.75;7.00;;;18.10;99.90;;;;;;5116648;28;20200;-75
2022/09/06 06:36:21;;;;;;;10.15;7.00;;;18.30;99.90;;;;;;5116481;28;20539;-75
2022/09/06 06:38:49;;;;;;;9.77;7.15;;;18.70;99.90;;;;;;5116458;28;20229;-75
2022/09/06 06:41:18;;;;;;;9.45;7.38;;;18.90;99.90;;;;;;5116341;28;20290;-75
2022/09/06 06:43:44;;;;;;;13.82;7.70;;;19.10;99.90;;;;;;5116175;28;20223;-75
2022/09/06 06:46:13;;;;;;;13.05;8.07;;;19.20;99.90;;;;;;5116074;28;20549;-76
2022/09/06 06:48:42;;;;;;;11.30;7.57;;;19.50;99.90;;;;;;5116110;28;20674;-75
2022/09/06 06:51:09;;;;;;;8.95;7.07;;;19.70;99.90;;;;;;5116130;28;20198;-75
2022/09/06 06:53:36;;;;;;;11.63;7.03;;;19.60;99.90;;;;;;5115955;28;20650;-75
2022/09/06 06:56:14;;;;;;;7.53;6.78;;;19.80;99.90;;;;;;5115828;28;20315;-75
2022/09/06 06:58:41;;;;;;;11.70;6.75;;;20.00;99.90;;;;;;5115682;28;20200;-75
2022/09/06 07:01:08;;;;;;;7.65;6.95;;;20.20;99.90;;;;;;5116012;28;20199;-76
2022/09/06 07:03:35;;;;;;;8.05;6.68;;;20.20;99.90;;;;;;5115879;28;20231;-75
2022/09/06 07:06:03;;;;;;;10.32;6.72;;;20.30;99.90;;;;;;5115836;28;20255;-75
2022/09/06 07:08:30;;;;;;;7.47;6.72;;;20.40;99.90;;;;;;5115911;28;20261;-75
2022/09/06 07:10:56;;;;;;;8.02;7.07;;;20.40;99.90;;;;;;5114382;28;20199;-75
2022/09/06 07:13:23;;;;;;;7.38;6.68;;;20.30;99.90;;;;;;5115442;28;20199;-75
2022/09/06 07:15:50;;;;;;;8.40;7.60;;;20.40;99.90;;;;;;5115661;28;20191;-75
2022/09/06 07:18:17;;;;;;;7.85;7.10;;;20.30;99.90;;;;;;5115686;28;20211;-75
2022/09/06 07:20:44;;;;;;;6.95;6.45;;;20.40;99.90;;;;;;5115436;28;20716;-75
2022/09/06 07:23:11;;;;;;;8.20;6.38;;;20.30;99.90;;;;;;5115299;28;20708;-75
2022/09/06 07:25:39;;;;;;;8.55;6.45;;;20.60;99.90;;;;;;5115320;28;20191;-75
2022/09/06 07:28:06;;;;;;;7.20;6.50;;;20.70;99.90;;;;;;5115561;28;20601;-75
2022/09/06 07:30:35;;;;;;;8.02;6.40;;;20.90;99.90;;;;;;5115498;28;20278;-74
2022/09/06 07:33:04;;;;;;;8.85;6.60;;;21.10;99.90;;;;;;5115309;28;20195;-76
2022/09/06 07:35:30;;;;;;;8.90;6.10;;;21.20;99.90;;;;;;5115115;28;20195;-76
2022/09/06 07:37:59;;;;;;;10.27;5.93;;;21.50;99.90;;;;;;5115204;28;20203;-76
2022/09/06 07:40:29;;;;;;;9.93;6.35;;;21.50;99.90;;;;;;5114939;28;20200;-75
2022/09/06 07:42:56;;;;;;;8.68;5.97;;;21.60;99.90;;;;;;5115187;28;20249;-74
2022/09/06 07:45:23;;;;;;;8.10;6.10;;;21.80;99.90;;;;;;5115155;28;20195;-76
2022/09/06 07:47:54;;;;;;;6.53;5.93;;;21.80;99.90;;;;;;5114880;28;20196;-76
2022/09/06 07:50:21;;;;;;;5.90;5.38;;;21.60;99.90;;;;;;5114841;28;20673;-76
2022/09/06 07:52:48;;;;;;;6.55;5.95;;;22.00;99.90;;;;;;5114834;28;20191;-76
2022/09/06 07:55:15;;;;;;;7.03;6.22;;;22.30;99.90;;;;;;5114484;28;20625;-76
2022/09/06 07:57:43;;;;;;;7.28;6.57;;;22.40;99.90;;;;;;5114747;28;20655;-76
2022/09/06 08:00:11;;;;;;;6.13;5.60;;;22.50;99.90;;;;;;5114821;28;20191;-76
2022/09/06 08:02:39;;;;;;;6.97;6.28;;;22.60;99.90;;;;;;5114683;28;20222;-76
2022/09/06 08:05:06;;;;;;;6.90;6.05;;;22.40;99.90;;;;;;5114462;28;20636;-76
2022/09/06 08:07:33;;;;;;;7.55;6.05;;;22.30;99.90;;;;;;5114510;28;20731;-76
2022/09/06 08:09:59;;;;;;;6.88;6.28;;;22.20;99.90;;;;;;5114703;27;20249;-76
2022/09/06 08:12:28;;;;;;;8.13;6.40;;;22.10;99.90;;;;;;5114407;28;20600;-76
2022/09/06 08:14:56;;;;;;;6.65;5.80;;;22.20;99.90;;;;;;5114355;28;20196;-76
2022/09/06 08:17:22;;;;;;;6.97;6.28;;;22.50;99.90;;;;;;5114371;28;20199;-76
2022/09/06 08:19:49;;;;;;;8.73;6.43;;;22.60;99.90;;;;;;5114188;28;20196;-76
2022/09/06 08:22:15;;;;;;;9.02;6.20;;;23.00;99.90;;;;;;5113991;28;20650;-76
2022/09/06 08:24:42;;;;;;;6.50;5.90;;;23.00;99.90;;;;;;5114415;28;20227;-76
2022/09/06 08:27:10;;;;;;;6.72;6.05;;;23.10;99.90;;;;;;5114041;28;20241;-76
2022/09/06 08:29:36;;;;;;;7.80;5.40;;;23.20;99.90;;;;;;5114157;28;20200;-76
2022/09/06 08:32:04;;;;;;;9.35;6.10;;;23.40;99.90;;;;;;5114063;28;20253;-76
2022/09/06 08:34:31;;;;;;;7.18;6.47;;;23.80;99.90;;;;;;5113864;28;20199;-76
2022/09/06 08:36:57;;;;;;;8.13;5.75;;;23.90;99.90;;;;;;5114180;28;20204;-76
2022/09/06 08:39:24;;;;;;;6.53;5.72;;;24.20;99.90;;;;;;5113998;28;20245;-76
2022/09/06 08:41:56;;;;;;;7.10;5.82;;;24.50;99.90;;;;;;5113807;28;20223;-76
2022/09/06 08:44:25;;;;;;;6.50;5.80;;;24.00;99.90;;;;;;5113845;28;20211;-76
2022/09/06 08:46:57;;;;;;;6.65;5.70;;;24.10;99.90;;;;;;5113778;28;20206;-76
2022/09/06 08:49:27;;;;;;;16.50;6.30;;;23.90;99.90;;;;;;5114018;28;20252;-76
2022/09/06 08:52:20;;;;;;;9.60;6.57;;;23.80;99.90;;;;;;5113816;28;20207;-76
2022/09/06 08:54:54;;;;;;;10.68;5.95;;;23.70;99.90;;;;;;5113521;28;20204;-76
2022/09/06 08:57:34;;;;;;;8.55;4.82;;;23.80;99.90;;;;;;5113498;28;20204;-76
2022/09/06 09:00:06;;;;;;;5.97;5.05;;;24.20;99.90;;;;;;5113517;28;20272;-76
2022/09/06 09:02:44;;;;;;;6.00;4.93;;;24.60;99.90;;;;;;5113642;28;20203;-75
2022/09/06 09:05:21;;;;;;;6.13;5.55;;;24.60;99.90;;;;;;5113458;28;20248;-75
2022/09/06 09:07:58;;;;;;;6.85;5.28;;;24.50;99.90;;;;;;5113268;28;20195;-75
2022/09/06 09:10:28;;;;;;;6.15;4.88;;;24.80;99.90;;;;;;5113443;28;20654;-75
2022/09/06 09:12:55;;;;;;;6.45;5.15;;;24.80;99.90;;;;;;5113533;28;20195;-75
2022/09/06 09:15:22;;;;;;;5.22;4.72;;;24.80;99.90;;;;;;5113360;28;20629;-76
2022/09/06 09:17:51;;;;;;;5.07;4.50;;;24.90;99.90;;;;;;5113381;28;20195;-76
2022/09/06 09:20:19;;;;;;;4.38;3.97;;;24.90;99.90;;;;;;5113185;28;20203;-75
2022/09/06 09:22:46;;;;;;;4.70;4.30;;;24.90;99.90;;;;;;5113356;28;20195;-76
2022/09/06 09:25:19;;;;;;;4.50;4.10;;;25.50;99.90;;;;;;5113274;28;20300;-76
2022/09/06 09:27:48;;;;;;;8.18;3.85;;;25.10;99.90;;;;;;5113542;28;20245;-76
2022/09/06 09:30:15;;;;;;;6.38;3.28;;;25.40;99.90;;;;;;5113267;28;20203;-75
2022/09/06 09:32:43;;;;;;;7.45;3.80;;;25.50;99.90;;;;;;5112736;28;20272;-75
2022/09/06 09:35:21;;;;;;;3.90;3.30;;;26.00;99.90;;;;;;5112981;28;20202;-76
2022/09/06 09:37:48;;;;;;;6.07;3.70;;;26.00;99.90;;;;;;5113261;28;20658;-77
2022/09/06 09:40:27;;;;;;;4.53;3.42;;;26.20;99.90;;;;;;5113279;28;20233;-76
2022/09/06 09:42:56;;;;;;;3.60;3.22;;;26.60;99.90;;;;;;5113142;28;20201;-75
2022/09/06 09:45:26;;;;;;;3.47;3.15;;;26.80;99.90;;;;;;5112802;28;20227;-75
2022/09/06 09:47:53;;;;;;;3.90;3.50;;;27.10;99.90;;;;;;5112975;28;20200;-76
2022/09/06 09:50:27;;;;;;;4.00;3.60;;;27.20;99.90;;;;;;5113215;28;20192;-76
2022/09/06 09:52:53;;;;;;;5.90;3.38;;;27.30;99.90;;;;;;5113105;28;20196;-76
2022/09/06 09:55:24;;;;;;;4.38;3.42;;;27.60;99.90;;;;;;5112726;28;20231;-76
2022/09/06 09:57:53;;;;;;;4.13;3.20;;;26.70;99.90;;;;;;5112840;28;20196;-75
2022/09/06 10:00:34;;;;;;;6.28;3.63;;;26.40;99.90;;;;;;5112996;28;20195;-76
2022/09/06 10:03:11;;;;;;;5.80;3.70;;;26.70;99.90;;;;;;5112764;28;20672;-75
2022/09/06 10:05:39;;;;;;;5.00;3.35;;;27.10;99.90;;;;;;5112740;28;20227;-75
2022/09/06 10:08:10;;;;;;;3.63;3.20;;;28.10;99.90;;;;;;5112738;28;20195;-76
2022/09/06 10:10:40;;;;;;;8.07;3.70;;;28.40;99.90;;;;;;5113094;28;20260;-76
2022/09/06 10:13:11;;;;;;;4.78;3.50;;;27.80;99.90;;;;;;5112977;28;20202;-75
2022/09/06 10:15:40;;;;;;;4.13;3.72;;;27.80;99.90;;;;;;5112885;28;20199;-74
2022/09/06 10:18:16;;;;;;;5.95;3.80;;;28.80;99.90;;;;;;5112702;28;20200;-74
2022/09/06 10:20:50;;;;;;;4.93;3.30;;;28.20;99.90;;;;;;5112551;28;20199;-74
2022/09/06 10:23:24;;;;;;;4.13;3.40;;;28.50;99.90;;;;;;5112879;28;20195;-76
2022/09/06 10:25:58;;;;;;;6.22;3.30;;;29.10;99.50;;;;;;5112667;28;20223;-76
2022/09/06 10:28:30;;;;;;;3.80;3.17;;;29.80;97.90;;;;;;5112601;28;20200;-76
2022/09/06 10:31:36;;;;;;;3.88;3.47;;;30.00;96.70;;;;;;5112523;28;20195;-76
2022/09/06 10:34:16;;;;;;;6.53;3.35;;;30.10;96.00;;;;;;5100759;28;20201;-76
2022/09/06 10:36:51;;;;;;;3.92;3.25;;;29.80;94.70;;;;;;5112486;28;20651;-76
2022/09/06 10:39:29;;;;;;;4.32;3.42;;;30.40;94.60;;;;;;5112519;28;20203;-76
2022/09/06 10:42:07;;;;;;;7.32;3.55;;;30.60;93.50;;;;;;5112845;28;20244;-76
2022/09/06 10:44:50;;;;;;;5.25;3.17;;;29.60;93.50;;;;;;5113166;28;20690;-76
2022/09/06 10:47:17;;;;;;;3.30;3.00;;;29.80;94.10;;;;;;5116004;28;20252;-76
2022/09/06 10:49:48;;;;;;;3.70;3.00;;;29.10;94.80;;;;;;5116100;28;20242;-76
2022/09/06 10:52:22;;;;;;;4.43;3.20;;;29.40;94.70;;;;;;5116394;28;20199;-75
2022/09/06 10:54:49;;;;;;;4.70;3.17;;;30.60;93.20;;;;;;5116036;28;20238;-75
2022/09/06 10:57:20;;;;;;;4.88;3.20;;;31.30;92.10;;;;;;5115906;28;20573;-75
2022/09/06 10:59:52;;;;;;;3.75;3.10;;;31.00;91.40;;;;;;5115891;28;20646;-75
2022/09/06 11:02:32;;;;;;;4.97;3.50;;;30.90;90.80;;;;;;5115945;28;20255;-75
2022/09/06 11:05:05;;;;;;;4.40;3.22;;;31.10;90.70;;;;;;5115809;28;20227;-75
2022/09/06 11:07:37;;;;;;;4.20;3.00;;;31.20;89.50;;;;;;5115640;28;20248;-75
2022/09/06 11:10:10;;;;;;;3.90;3.10;;;32.70;87.60;;;;;;5115703;28;20248;-76
2022/09/06 11:12:41;;;;;;;4.00;2.90;;;33.20;82.20;;;;;;5115607;28;20256;-76
2022/09/06 11:15:13;;;;;;;4.35;2.95;;;31.80;81.80;;;;;;5115674;28;20597;-75
2022/09/06 11:17:45;;;;;;;5.30;2.90;;;32.40;79.80;;;;;;5115488;27;20727;-76
2022/09/06 11:20:17;;;;;;;3.85;2.78;;;32.40;80.10;;;;;;5115553;28;20240;-76
2022/09/06 11:23:04;;;;;;;4.53;3.08;;;33.60;76.80;;;;;;5115549;28;20228;-76
2022/09/06 11:26:13;;;;;;;4.05;3.42;;;34.20;73.40;;;;;;5115628;28;20211;-76
2022/09/06 11:28:45;;;;;;;7.63;3.70;;;33.20;71.30;;;;;;5115317;28;20199;-74
2022/09/06 11:31:20;;;;;;;6.95;3.38;;;33.10;70.80;;;;;;5115390;28;20191;-75
2022/09/06 11:33:48;;;;;;;6.45;3.30;;;33.30;69.90;;;;;;5115208;28;20195;-75
2022/09/06 11:36:18;;;;;;;4.50;2.88;;;32.70;68.50;;;;;;5115443;28;20203;-77
2022/09/06 11:38:56;;;;;;;3.72;3.33;;;32.20;68.90;;;;;;5115276;28;20236;-76
2022/09/06 11:41:29;;;;;;;4.00;3.00;;;32.40;69.50;;;;;;5115141;28;20200;-76
2022/09/06 11:43:56;;;;;;;4.35;2.92;;;30.80;71.30;;;;;;5115051;28;20199;-76
2022/09/06 11:46:57;;;;;;;4.00;3.30;;;30.40;70.70;;;;;;5115305;28;20280;-76
2022/09/06 11:49:32;;;;;;;4.65;3.28;;;29.60;73.60;;;;;;5115002;28;20199;-76
2022/09/06 11:52:00;;;;;;;4.65;2.67;;;29.40;74.50;;;;;;5114996;28;20194;-76
2022/09/06 11:54:38;;;;;;;4.57;2.95;;;30.60;74.60;;;;;;5114842;28;20248;-76
2022/09/06 11:57:13;;;;;;;6.53;3.28;;;31.50;72.50;;;;;;5114347;28;20191;-76
2022/09/06 11:59:51;;;;;;;5.78;3.15;;;31.60;69.70;;;;;;5114923;28;20220;-76
2022/09/06 12:02:34;;;;;;;4.47;2.97;;;31.90;69.50;;;;;;5114773;28;20272;-76
2022/09/06 12:05:25;;;;;;;6.10;3.03;;;31.10;69.20;;;;;;5114664;28;20223;-76
2022/09/06 12:08:13;;;;;;;5.78;3.08;;;31.30;69.90;;;;;;5115002;28;20282;-76
2022/09/06 12:10:55;;;;;;;3.85;2.85;;;31.80;68.40;;;;;;5114528;28;20195;-76
2022/09/06 12:13:47;;;;;;;2.83;2.40;;;31.40;65.80;;;;;;5114566;28;20254;-76
2022/09/06 12:16:16;;;;;;;3.20;2.40;;;31.90;62.80;;;;;;5114561;28;20211;-76
2022/09/06 12:18:54;;;;;;;5.80;2.50;;;33.80;60.60;;;;;;5114463;28;20195;-76
2022/09/06 12:21:44;;;;;;;4.53;2.40;;;33.90;58.50;;;;;;5114320;28;20252;-76
2022/09/06 12:24:44;;;;;;;4.40;2.70;;;34.60;56.80;;;;;;5114471;28;20249;-76
2022/09/06 12:27:15;;;;;;;8.00;2.78;;;34.10;56.70;;;;;;5114311;28;20256;-76
2022/09/06 12:29:55;;;;;;;3.40;2.65;;;33.90;56.10;;;;;;5114119;28;20229;-75
2022/09/06 12:32:26;;;;;;;3.95;2.70;;;34.70;56.50;;;;;;5114269;28;20604;-75
2022/09/06 12:34:54;;;;;;;6.35;2.80;;;33.10;56.50;;;;;;5114480;28;20214;-75
2022/09/06 12:37:32;;;;;;;6.30;3.03;;;31.70;58.70;;;;;;5114062;28;20248;-76
2022/09/06 12:39:59;;;;;;;11.23;3.10;;;31.80;59.10;;;;;;5114004;28;20195;-75
2022/09/06 12:42:27;;;;;;;5.55;2.63;;;32.30;59.70;;;;;;5113817;28;20540;-75
2022/09/06 12:44:55;;;;;;;3.40;2.35;;;34.60;56.60;;;;;;5113762;28;20258;-77
2022/09/06 12:47:26;;;;;;;4.25;2.60;;;36.50;52.00;;;;;;5113986;28;20199;-75
2022/09/06 12:50:12;;;;;;;3.88;2.08;;;35.10;49.00;;;;;;5113767;28;20707;-75
2022/09/06 12:52:48;;;;;;;3.83;2.22;;;34.20;48.70;;;;;;5113835;28;20199;-74
2022/09/06 12:55:20;;;;;;;5.32;2.33;;;34.90;48.40;;;;;;5113663;28;20260;-75
2022/09/06 12:57:51;;;;;;;5.93;2.45;;;32.70;49.60;;;;;;5113887;28;20271;-76
2022/09/06 13:00:19;;;;;;;4.78;2.50;;;32.10;51.10;;;;;;5113716;28;20655;-76